createdAt,value
2023-03-06T00:01:28.832Z,99513.83
2023-03-06T00:04:00.647Z,99510.83
2023-03-06T00:06:32.756Z,99510.98
2023-03-06T00:09:04.758Z,99512.78
2023-03-06T00:11:37.170Z,99509.75
2023-03-06T00:14:08.919Z,99508.68
2023-03-06T00:16:40.584Z,99509.23
2023-03-06T00:19:12.356Z,99504.61
2023-03-06T00:21:44.646Z,99500.89
2023-03-06T00:24:16.876Z,99496.27
2023-03-06T00:26:48.615Z,99492.72
2023-03-06T00:29:20.888Z,99496.81
2023-03-06T00:31:52.567Z,99495.73
2023-03-06T00:34:24.696Z,99496.10
2023-03-06T00:36:56.464Z,99493.95
2023-03-06T00:39:28.206Z,99488.80
2023-03-06T00:41:59.955Z,99481.88
2023-03-06T00:44:31.872Z,99474.24
2023-03-06T00:47:03.639Z,99476.20
2023-03-06T00:49:36.547Z,99468.55
2023-03-06T00:52:07.205Z,99464.29
2023-03-06T00:54:39.557Z,99456.83
2023-03-06T00:57:10.299Z,99459.50
2023-03-06T00:59:42.474Z,99454.68
2023-03-06T01:02:15.108Z,99456.98
2023-03-06T01:04:45.336Z,99455.02
2023-03-06T01:07:17.633Z,99453.95
2023-03-06T01:09:49.417Z,99448.81
2023-03-06T01:12:23.400Z,99444.21
2023-03-06T01:14:55.940Z,99444.57
2023-03-06T01:17:27.705Z,99438.00
2023-03-06T01:19:59.615Z,99440.14
2023-03-06T01:22:31.488Z,99435.52
2023-03-06T01:25:04.917Z,99434.11
2023-03-06T01:27:36.852Z,99433.95
2023-03-06T01:30:10.651Z,99431.10
2023-03-06T01:32:43.139Z,99428.27
2023-03-06T01:35:15.449Z,99428.09
2023-03-06T01:37:47.135Z,99422.05
2023-03-06T01:40:18.845Z,99424.71
2023-03-06T01:42:52.231Z,99419.91
2023-03-06T01:45:58.744Z,99419.73
2023-03-06T01:48:30.504Z,99418.31
2023-03-06T01:51:02.586Z,99415.84
2023-03-06T01:53:35.069Z,99409.61
2023-03-06T01:56:06.110Z,99407.84
2023-03-06T01:58:39.100Z,99407.83
2023-03-06T02:01:12.596Z,99400.73
2023-03-06T02:03:46.554Z,99399.31
2023-03-06T02:06:21.671Z,99392.20
2023-03-06T02:08:55.286Z,99394.34
2023-03-06T02:11:27.410Z,99391.67
2023-03-06T02:13:59.388Z,99390.09
2023-03-06T02:16:34.082Z,99388.48
2023-03-06T02:19:08.754Z,99384.77
2023-03-06T02:21:40.759Z,99379.42
2023-03-06T02:24:25.201Z,99377.12
2023-03-06T02:27:00.113Z,99379.77
2023-03-06T02:29:33.291Z,99374.45
2023-03-06T02:32:07.791Z,99372.33
2023-03-06T02:34:56.486Z,99369.13
2023-03-06T02:37:30.162Z,99367.53
2023-03-06T02:40:12.217Z,99357.95
2023-03-06T02:42:50.118Z,99357.04
2023-03-06T02:45:27.103Z,99355.97
2023-03-06T02:47:58.772Z,99358.98
2023-03-06T02:50:30.824Z,99359.17
2023-03-06T02:53:02.895Z,99361.12
2023-03-06T02:55:36.631Z,99358.98
2023-03-06T02:58:09.146Z,99355.25
2023-03-06T03:00:41.186Z,99355.09
2023-03-06T03:03:13.980Z,99355.61
2023-03-06T03:05:46.139Z,99354.36
2023-03-06T03:08:24.375Z,99349.20
2023-03-06T03:10:59.722Z,99345.82
2023-03-06T03:13:34.661Z,99340.66
2023-03-06T03:16:06.126Z,99337.30
2023-03-06T03:18:39.058Z,99340.31
2023-03-06T03:21:13.548Z,99340.50
2023-03-06T03:23:46.215Z,99336.25
2023-03-06T03:26:20.072Z,99335.52
2023-03-06T03:29:04.956Z,99333.75
2023-03-06T03:31:36.797Z,99333.75
2023-03-06T03:34:08.703Z,99330.71
2023-03-06T03:36:42.671Z,99330.55
2023-03-06T03:39:14.127Z,99325.57
2023-03-06T03:41:45.916Z,99320.24
2023-03-06T03:44:18.021Z,99321.30
2023-03-06T03:46:50.218Z,99316.34
2023-03-06T03:49:25.148Z,99319.50
2023-03-06T03:51:57.915Z,99312.40
2023-03-06T03:54:30.255Z,99315.94
2023-03-06T03:57:02.417Z,99313.09
2023-03-06T03:59:37.551Z,99311.14
2023-03-06T04:02:32.812Z,99310.61
2023-03-06T04:05:14.592Z,99311.30
2023-03-06T04:07:46.702Z,99306.70
2023-03-06T04:10:19.337Z,99301.90
2023-03-06T04:12:52.831Z,99301.36
2023-03-06T04:15:23.346Z,99301.17
2023-03-06T04:17:55.188Z,99294.41
2023-03-06T04:20:29.277Z,99294.05
2023-03-06T04:23:01.767Z,99286.23
2023-03-06T04:25:34.015Z,99288.55
2023-03-06T04:28:08.988Z,99281.07
2023-03-06T04:30:41.097Z,99277.70
2023-03-06T04:33:13.191Z,99278.91
2023-03-06T04:35:45.826Z,99277.50
2023-03-06T04:38:21.557Z,99272.01
2023-03-06T04:40:53.310Z,99268.47
2023-03-06T04:43:25.834Z,99268.27
2023-03-06T04:45:58.879Z,99271.09
2023-03-06T04:48:30.855Z,99266.44
2023-03-06T04:51:02.568Z,99264.31
2023-03-06T04:53:34.284Z,99265.04
2023-03-06T04:56:07.233Z,99254.55
2023-03-06T04:58:39.252Z,99254.04
2023-03-06T05:01:11.314Z,99251.95
2023-03-06T05:03:43.177Z,99252.12
2023-03-06T05:06:14.966Z,99245.48
2023-03-06T05:08:46.860Z,99245.65
2023-03-06T05:11:18.576Z,99247.77
2023-03-06T05:13:50.429Z,99245.45
2023-03-06T05:16:22.165Z,99239.80
2023-03-06T05:18:53.936Z,99236.44
2023-03-06T05:21:25.640Z,99233.91
2023-03-06T05:23:57.386Z,99234.96
2023-03-06T05:26:29.193Z,99231.11
2023-03-06T05:29:01.296Z,99226.81
2023-03-06T05:31:33.269Z,99226.95
2023-03-06T05:34:05.162Z,99228.53
2023-03-06T05:36:36.894Z,99227.13
2023-03-06T05:39:08.759Z,99225.17
2023-03-06T05:41:40.498Z,99220.70
2023-03-06T05:44:12.683Z,99218.76
2023-03-06T05:46:44.433Z,99220.15
2023-03-06T05:49:16.417Z,99219.98
2023-03-06T05:51:48.181Z,99217.31
2023-03-06T05:54:19.873Z,99216.77
2023-03-06T05:56:52.571Z,99214.66
2023-03-06T05:59:28.041Z,99213.77
2023-03-06T06:02:01.161Z,99215.91
2023-03-06T06:04:33.234Z,99212.16
2023-03-06T06:07:05.924Z,99207.00
2023-03-06T06:09:38.120Z,99206.80
2023-03-06T06:12:10.892Z,99207.15
2023-03-06T06:14:43.140Z,99210.91
2023-03-06T06:17:16.554Z,99202.20
2023-03-06T06:19:48.518Z,99208.25
2023-03-06T06:22:20.246Z,99204.15
2023-03-06T06:24:52.189Z,99204.15
2023-03-06T06:27:24.030Z,99202.38
2023-03-06T06:29:55.975Z,99203.09
2023-03-06T06:32:28.011Z,99205.55
2023-03-06T06:35:00.008Z,99202.76
2023-03-06T06:37:32.603Z,99202.42
2023-03-06T06:40:04.606Z,99207.05
2023-03-06T06:42:39.896Z,99200.62
2023-03-06T06:45:13.863Z,99204.34
2023-03-06T06:47:46.450Z,99203.08
2023-03-06T06:50:16.771Z,99202.70
2023-03-06T06:52:48.512Z,99195.23
2023-03-06T06:55:20.349Z,99198.75
2023-03-06T06:57:52.437Z,99201.44
2023-03-06T07:00:25.967Z,99200.52
2023-03-06T07:02:58.029Z,99191.98
2023-03-06T07:05:29.872Z,99190.58
2023-03-06T07:08:01.818Z,99188.98
2023-03-06T07:10:33.699Z,99191.62
2023-03-06T07:13:06.297Z,99186.77
2023-03-06T07:15:38.076Z,99187.65
2023-03-06T07:18:09.889Z,99188.77
2023-03-06T07:20:41.770Z,99187.66
2023-03-06T07:23:15.205Z,99186.61
2023-03-06T07:25:46.984Z,99188.54
2023-03-06T07:28:19.734Z,99186.77
2023-03-06T07:30:50.471Z,99184.80
2023-03-06T07:33:23.157Z,99192.65
2023-03-06T07:35:55.207Z,99193.38
2023-03-06T07:38:26.982Z,99194.77
2023-03-06T07:40:58.752Z,99197.03
2023-03-06T07:43:30.598Z,99200.53
2023-03-06T07:46:06.534Z,99199.80
2023-03-06T07:48:39.038Z,99196.26
2023-03-06T07:51:11.409Z,99198.58
2023-03-06T07:53:43.317Z,99188.08
2023-03-06T07:56:15.445Z,99198.71
2023-03-06T07:58:48.874Z,99197.97
2023-03-06T08:01:23.658Z,99196.05
2023-03-06T08:03:56.038Z,99198.39
2023-03-06T08:06:28.928Z,99198.01
2023-03-06T08:08:59.225Z,99200.07
2023-03-06T08:11:33.284Z,99197.73
2023-03-06T08:14:05.579Z,99194.70
2023-03-06T08:16:37.497Z,99196.28
2023-03-06T08:19:10.028Z,99194.52
2023-03-06T08:21:42.362Z,99196.83
2023-03-06T08:24:16.523Z,99191.78
2023-03-06T08:26:48.616Z,99192.88
2023-03-06T08:29:20.662Z,99189.11
2023-03-06T08:31:52.843Z,99189.39
2023-03-06T08:34:26.273Z,99191.17
2023-03-06T08:36:58.185Z,99188.72
2023-03-06T08:39:30.683Z,99185.73
2023-03-06T08:44:48.744Z,99189.67
2023-03-06T08:47:21.425Z,99188.05
2023-03-06T08:49:51.690Z,99189.27
2023-03-06T08:52:23.469Z,99189.53
2023-03-06T08:54:55.560Z,99188.77
2023-03-06T08:57:27.451Z,99193.34
2023-03-06T09:00:04.806Z,99192.38
2023-03-06T09:02:40.338Z,99194.14
2023-03-06T09:05:13.235Z,99194.26
2023-03-06T09:07:43.555Z,99192.62
2023-03-06T09:10:18.424Z,99194.98
2023-03-06T09:12:53.098Z,99198.33
2023-03-06T09:15:27.187Z,99206.80
2023-03-06T09:17:57.477Z,99216.23
2023-03-06T09:20:29.807Z,99210.98
2023-03-06T09:23:01.806Z,99206.95
2023-03-06T09:25:33.640Z,99209.41
2023-03-06T09:28:11.610Z,99216.84
2023-03-06T09:30:44.499Z,99214.15
2023-03-06T09:33:17.004Z,99218.10
2023-03-06T09:35:51.974Z,99221.47
2023-03-06T09:38:26.807Z,99228.95
2023-03-06T09:41:09.698Z,99217.98
2023-03-06T09:43:41.543Z,99214.89
2023-03-06T09:47:00.093Z,99210.16
2023-03-06T09:49:45.897Z,99210.17
2023-03-06T09:52:31.785Z,99208.30
2023-03-06T09:55:12.566Z,99208.48
2023-03-06T09:57:53.476Z,99206.61
2023-03-06T10:00:31.192Z,99204.55
2023-03-06T10:03:17.222Z,99201.31
2023-03-06T10:05:56.146Z,99201.73
2023-03-06T10:08:35.820Z,99199.45
2023-03-06T10:11:11.060Z,99198.04
2023-03-06T10:13:46.906Z,99204.71
2023-03-06T10:16:27.840Z,99201.50
2023-03-06T10:19:04.451Z,99201.27
2023-03-06T10:21:44.806Z,99198.92
2023-03-06T10:24:31.500Z,99201.16
2023-03-06T10:27:12.925Z,99197.84
2023-03-06T10:30:02.833Z,99197.48
2023-03-06T10:32:49.140Z,99196.45
2023-03-06T10:35:30.527Z,99196.70
2023-03-06T10:38:19.682Z,99195.77
2023-03-06T10:41:09.759Z,99196.86
2023-03-06T10:43:43.558Z,99199.56
2023-03-06T10:46:28.000Z,99201.90
2023-03-06T10:49:02.637Z,99198.48
2023-03-06T10:51:35.578Z,99197.50
2023-03-06T10:54:19.391Z,99199.92
2023-03-06T10:56:51.314Z,99199.55
2023-03-06T10:59:25.687Z,99191.02
2023-03-06T11:02:14.672Z,99197.20
2023-03-06T11:04:52.462Z,99191.95
2023-03-06T11:07:26.356Z,99193.59
2023-03-06T11:10:18.029Z,99191.64
2023-03-06T11:13:00.532Z,99190.44
2023-03-06T11:15:33.047Z,99190.05
2023-03-06T11:18:23.634Z,99185.68
2023-03-06T11:20:56.596Z,99181.46
2023-03-06T11:23:38.414Z,99183.78
2023-03-06T11:26:31.046Z,99183.06
2023-03-06T11:29:13.165Z,99183.93
2023-03-06T11:31:52.240Z,99174.61
2023-03-06T11:34:32.816Z,99175.58
2023-03-06T11:37:11.708Z,99172.29
2023-03-06T11:39:50.774Z,99167.04
2023-03-06T11:42:27.502Z,99169.55
2023-03-06T11:45:10.207Z,99174.73
2023-03-06T11:47:45.447Z,99172.38
2023-03-06T11:50:23.047Z,99176.14
2023-03-06T11:52:58.142Z,99170.76
2023-03-06T11:55:40.686Z,99174.86
2023-03-06T11:58:51.266Z,99173.98
2023-03-06T12:01:33.835Z,99172.11
2023-03-06T12:04:34.097Z,99171.82
2023-03-06T12:07:20.793Z,99175.79
2023-03-06T12:13:08.100Z,99178.94
2023-03-06T12:15:59.787Z,99183.11
2023-03-06T12:18:43.974Z,99178.58
2023-03-06T12:21:26.614Z,99173.85
2023-03-06T12:24:11.011Z,99176.55
2023-03-06T12:27:10.014Z,99171.08
2023-03-06T12:30:05.058Z,99172.71
2023-03-06T12:32:49.525Z,99171.05
2023-03-06T12:35:36.933Z,99172.54
2023-03-06T12:38:25.889Z,99166.55
2023-03-06T12:41:18.194Z,99171.41
2023-03-06T12:44:07.313Z,99172.12
2023-03-06T12:46:44.568Z,99173.23
2023-03-06T12:49:32.080Z,99175.92
2023-03-06T12:52:08.894Z,99175.06
2023-03-06T12:54:43.804Z,99174.08
2023-03-06T12:57:18.301Z,99173.02
2023-03-06T12:59:51.030Z,99173.47
2023-03-06T13:02:33.247Z,99172.75
2023-03-06T13:05:28.320Z,99174.40
2023-03-06T13:08:31.083Z,99176.28
2023-03-06T13:11:31.694Z,99173.83
2023-03-06T13:14:25.323Z,99168.92
2023-03-06T13:17:17.290Z,99170.20
2023-03-06T13:19:49.695Z,99169.30
2023-03-06T13:22:31.026Z,99168.52
2023-03-06T13:25:39.019Z,99169.46
2023-03-06T13:28:26.018Z,99168.27
2023-03-06T13:30:57.860Z,99165.20
2023-03-06T13:33:53.362Z,99163.07
2023-03-06T13:36:31.413Z,99162.60
2023-03-06T13:39:19.656Z,99162.90
2023-03-06T13:42:01.428Z,99161.30
2023-03-06T13:44:53.035Z,99161.52
2023-03-06T13:47:55.743Z,99162.28
2023-03-06T13:50:35.514Z,99157.00
2023-03-06T13:53:25.065Z,99163.23
2023-03-06T13:56:12.892Z,99156.86
2023-03-06T13:58:59.313Z,99154.45
2023-03-06T14:01:43.123Z,99158.25
2023-03-06T14:04:37.149Z,99163.66
2023-03-06T14:07:28.042Z,99160.00
2023-03-06T14:10:20.186Z,99158.75
2023-03-06T14:13:05.321Z,99155.11
2023-03-06T14:15:45.145Z,99156.70
2023-03-06T14:18:21.287Z,99155.09
2023-03-06T14:20:58.638Z,99158.69
2023-03-06T14:23:35.208Z,99158.87
2023-03-06T14:26:15.189Z,99158.79
2023-03-06T14:28:56.511Z,99155.14
2023-03-06T14:31:34.602Z,99154.60
2023-03-06T14:34:08.221Z,99156.73
2023-03-06T14:36:46.457Z,99157.34
2023-03-06T14:39:23.794Z,99156.17
2023-03-06T14:42:07.876Z,99157.62
2023-03-06T14:44:40.838Z,99161.42
2023-03-06T14:47:24.537Z,99160.02
2023-03-06T14:50:21.627Z,99159.85
2023-03-06T14:52:57.562Z,99159.52
2023-03-06T14:55:31.447Z,99159.72
2023-03-06T14:58:08.886Z,99159.30
2023-03-06T15:00:44.574Z,99158.92
2023-03-06T15:03:21.361Z,99155.24
2023-03-06T15:05:53.918Z,99154.70
2023-03-06T15:08:30.057Z,99156.67
2023-03-06T15:11:03.983Z,99160.05
2023-03-06T15:13:36.508Z,99157.60
2023-03-06T15:16:23.425Z,99155.42
2023-03-06T15:19:00.179Z,99155.80
2023-03-06T15:21:36.399Z,99155.31
2023-03-06T15:24:32.438Z,99156.17
2023-03-06T15:27:06.677Z,99153.99
2023-03-06T15:29:40.967Z,99153.16
2023-03-06T15:32:33.491Z,99154.55
2023-03-06T15:35:30.347Z,99156.76
2023-03-06T15:38:03.089Z,99161.27
2023-03-06T15:40:35.611Z,99159.37
2023-03-06T15:43:12.861Z,99159.39
2023-03-06T15:45:44.793Z,99162.25
2023-03-06T15:48:19.624Z,99158.64
2023-03-06T15:50:51.525Z,99158.64
2023-03-06T15:53:23.621Z,99159.65
2023-03-06T15:55:55.888Z,99158.36
2023-03-06T15:58:30.488Z,99154.33
2023-03-06T16:01:04.025Z,99151.00
2023-03-06T16:03:36.085Z,99159.36
2023-03-06T16:06:10.566Z,99152.66
2023-03-06T16:08:42.329Z,99160.81
2023-03-06T16:11:18.144Z,99159.58
2023-03-06T16:13:49.880Z,99160.70
2023-03-06T16:16:25.614Z,99164.19
2023-03-06T16:18:57.890Z,99157.70
2023-03-06T16:21:29.992Z,99151.85
2023-03-06T16:24:02.572Z,99153.14
2023-03-06T16:26:36.270Z,99157.86
2023-03-06T16:29:08.466Z,99160.52
2023-03-06T16:31:44.644Z,99165.21
2023-03-06T16:34:17.613Z,99164.26
2023-03-06T16:36:50.269Z,99163.69
2023-03-06T16:39:24.055Z,99159.33
2023-03-06T16:41:56.337Z,99165.48
2023-03-06T16:44:28.271Z,99168.02
2023-03-06T16:47:02.999Z,99165.73
2023-03-06T16:49:39.512Z,99168.85
2023-03-06T16:52:14.561Z,99168.45
2023-03-06T16:54:46.586Z,99171.11
2023-03-06T16:57:18.492Z,99170.89
2023-03-06T16:59:51.442Z,99171.27
2023-03-06T17:02:23.815Z,99173.79
2023-03-06T17:04:55.134Z,99174.30
2023-03-06T17:07:29.420Z,99180.59
2023-03-06T17:10:01.970Z,99183.82
2023-03-06T17:12:32.845Z,99183.19
2023-03-06T17:15:06.012Z,99182.46
2023-03-06T17:17:38.943Z,99184.46
2023-03-06T17:20:17.561Z,99191.83
2023-03-06T17:22:50.060Z,99184.17
2023-03-06T17:25:22.445Z,99184.20
2023-03-06T17:27:54.385Z,99188.28
2023-03-06T17:30:26.842Z,99190.48
2023-03-06T17:32:58.219Z,99195.09
2023-03-06T17:35:30.577Z,99195.20
2023-03-06T17:38:03.743Z,99198.90
2023-03-06T17:40:36.258Z,99194.06
2023-03-06T17:43:08.549Z,99196.20
2023-03-06T17:45:41.150Z,99195.91
2023-03-06T17:48:13.587Z,99203.77
2023-03-06T17:50:53.261Z,99201.29
2023-03-06T17:53:25.407Z,99202.84
2023-03-06T17:55:58.126Z,99199.77
2023-03-06T17:58:30.010Z,99198.88
2023-03-06T18:01:02.050Z,99203.11
2023-03-06T18:03:34.207Z,99198.45
2023-03-06T18:06:09.358Z,99195.25
2023-03-06T18:08:41.783Z,99190.27
2023-03-06T18:11:15.799Z,99192.91
2023-03-06T18:14:05.542Z,99199.73
2023-03-06T18:16:39.096Z,99193.55
2023-03-06T18:19:12.591Z,99195.05
2023-03-06T18:21:47.358Z,99191.09
2023-03-06T18:24:19.827Z,99190.86
2023-03-06T18:26:52.285Z,99192.48
2023-03-06T18:29:24.300Z,99188.92
2023-03-06T18:31:58.732Z,99192.31
2023-03-06T18:34:30.740Z,99197.84
2023-03-06T18:37:02.643Z,99192.89
2023-03-06T18:39:34.691Z,99196.33
2023-03-06T18:42:07.465Z,99196.16
2023-03-06T18:44:39.654Z,99198.23
2023-03-06T18:47:12.277Z,99201.84
2023-03-06T18:49:44.894Z,99200.41
2023-03-06T18:52:19.835Z,99198.71
2023-03-06T18:54:53.507Z,99203.31
2023-03-06T18:57:25.680Z,99198.76
2023-03-06T18:59:58.433Z,99205.40
2023-03-06T19:02:31.550Z,99205.95
2023-03-06T19:05:04.685Z,99210.20
2023-03-06T19:07:37.783Z,99197.41
2023-03-06T19:10:12.212Z,99205.05
2023-03-06T19:12:44.965Z,99202.68
2023-03-06T19:15:17.787Z,99205.52
2023-03-06T19:17:52.244Z,99206.95
2023-03-06T19:20:26.060Z,99205.52
2023-03-06T19:22:58.319Z,99204.80
2023-03-06T19:25:30.493Z,99208.56
2023-03-06T19:28:02.951Z,99211.70
2023-03-06T19:30:34.905Z,99215.98
2023-03-06T19:33:12.934Z,99215.50
2023-03-06T19:44:31.371Z,99222.77
2023-03-06T19:48:34.301Z,99226.20
2023-03-06T19:51:10.221Z,99228.73
2023-03-06T19:53:42.868Z,99226.10
2023-03-06T19:56:20.945Z,99233.40
2023-03-06T19:58:56.382Z,99239.23
2023-03-06T20:01:35.252Z,99236.42
2023-03-06T20:04:09.394Z,99238.70
2023-03-06T20:06:54.044Z,99233.67
2023-03-06T20:09:26.994Z,99234.61
2023-03-06T20:11:59.545Z,99233.94
2023-03-06T20:14:30.524Z,99230.70
2023-03-06T20:17:02.742Z,99226.74
2023-03-06T20:19:35.291Z,99223.68
2023-03-06T20:22:07.293Z,99224.41
2023-03-06T20:24:39.496Z,99225.30
2023-03-06T20:27:11.741Z,99228.33
2023-03-06T20:29:45.629Z,99227.27
2023-03-06T20:32:17.739Z,99225.86
2023-03-06T20:34:50.330Z,99229.41
2023-03-06T20:37:22.342Z,99228.02
2023-03-06T20:39:54.244Z,99225.38
2023-03-06T20:42:26.333Z,99225.71
2023-03-06T20:45:01.137Z,99229.98
2023-03-06T20:47:33.214Z,99225.88
2023-03-06T20:50:05.405Z,99229.45
2023-03-06T20:52:37.294Z,99229.27
2023-03-06T20:55:10.711Z,99228.92
2023-03-06T20:57:43.243Z,99229.13
2023-03-06T21:00:19.041Z,99224.14
2023-03-06T21:02:51.108Z,99213.34
2023-03-06T21:05:23.405Z,99226.13
2023-03-06T21:07:56.557Z,99225.06
2023-03-06T21:10:30.688Z,99224.55
2023-03-06T21:13:02.761Z,99224.90
2023-03-06T21:15:35.033Z,99227.55
2023-03-06T21:18:07.839Z,99228.46
2023-03-06T21:20:42.687Z,99228.81
2023-03-06T21:23:15.524Z,99225.61
2023-03-06T21:25:52.864Z,99224.55
2023-03-06T21:28:25.223Z,99225.09
2023-03-06T21:30:57.729Z,99224.20
2023-03-06T21:33:30.465Z,99225.30
2023-03-06T21:36:03.549Z,99223.86
2023-03-06T21:38:36.753Z,99220.12
2023-03-06T21:41:15.016Z,99222.61
2023-03-06T21:43:47.609Z,99218.52
2023-03-06T21:46:19.659Z,99218.52
2023-03-06T21:48:52.156Z,99216.22
2023-03-06T21:51:25.542Z,99220.49
2023-03-06T21:53:58.958Z,99216.96
2023-03-06T21:56:33.360Z,99212.52
2023-03-06T21:59:05.518Z,99212.55
2023-03-06T22:01:37.569Z,99203.86
2023-03-06T22:04:09.930Z,99203.48
2023-03-06T22:06:41.908Z,99212.71
2023-03-06T22:09:16.068Z,99215.55
2023-03-06T22:11:47.979Z,99213.08
2023-03-06T22:14:19.776Z,99218.23
2023-03-06T22:16:53.280Z,99212.91
2023-03-06T22:19:25.074Z,99217.89
2023-03-06T22:21:59.426Z,99215.95
2023-03-06T22:24:31.708Z,99215.23
2023-03-06T22:27:03.691Z,99208.49
2023-03-06T22:29:36.071Z,99206.89
2023-03-06T22:32:08.722Z,99210.79
2023-03-06T22:34:40.803Z,99210.27
2023-03-06T22:37:12.775Z,99206.16
2023-03-06T22:39:45.093Z,99206.70
2023-03-06T22:42:17.146Z,99203.34
2023-03-06T22:44:49.126Z,99199.25
2023-03-06T22:47:21.150Z,99205.69
2023-03-06T22:49:52.896Z,99201.96
2023-03-06T22:52:24.716Z,99201.08
2023-03-06T22:54:56.452Z,99205.73
2023-03-06T22:57:29.957Z,99201.11
2023-03-06T23:00:01.904Z,99202.74
2023-03-06T23:02:38.054Z,99202.61
2023-03-06T23:05:11.184Z,99199.75
2023-03-06T23:07:43.252Z,99193.17
2023-03-06T23:10:15.330Z,99191.92
2023-03-06T23:13:05.470Z,99192.45
2023-03-06T23:15:56.457Z,99191.40
2023-03-06T23:18:47.737Z,99187.17
2023-03-06T23:21:38.054Z,99182.89
2023-03-06T23:24:28.647Z,99188.61
2023-03-06T23:27:00.682Z,99171.73
2023-03-06T23:29:32.731Z,99179.17
2023-03-06T23:32:04.878Z,99174.56
2023-03-06T23:34:37.325Z,99174.55
2023-03-06T23:37:09.161Z,99171.89
2023-03-06T23:39:41.798Z,99172.42
2023-03-06T23:42:13.727Z,99173.13
2023-03-06T23:44:45.656Z,99172.63
2023-03-06T23:47:20.107Z,99174.08
2023-03-06T23:49:52.095Z,99176.40
2023-03-06T23:52:24.203Z,99175.51
2023-03-06T23:54:56.116Z,99178.16
2023-03-06T23:57:27.981Z,99179.04
